Time,TemperatureF,DewpointF,PressureIn,WindDirection,WindDirectionDegrees,WindSpeedMPH,WindSpeedGustMPH,Humidity,HourlyPrecipIn,Conditions,Clouds,dailyrainin,SoftwareType,DateUTC
2018-04-20 00:07:00,41.0,28.0,30.19,NW,315,0.0,-999.0,60,-99.99,,,-99.99,,2018-04-20 04:07:00,
2018-04-20 00:36:00,41.0,29.0,30.20,WNW,289,0.0,-999.0,61,-99.99,,,-99.99,,2018-04-20 04:36:00,
2018-04-20 01:07:00,41.0,29.0,30.22,NW,323,0.0,-999.0,62,-99.99,,,-99.99,,2018-04-20 05:07:00,
2018-04-20 01:37:00,40.0,28.0,30.22,North,10,0.0,-999.0,63,-99.99,,,-99.99,,2018-04-20 05:37:00,
2018-04-20 02:07:00,40.0,28.0,30.23,NW,312,0.0,-999.0,63,-99.99,,,-99.99,,2018-04-20 06:07:00,
2018-04-20 02:36:00,40.0,28.0,30.24,West,281,0.0,-999.0,62,-99.99,,,-99.99,,2018-04-20 06:36:00,
2018-04-20 03:07:00,40.0,28.0,30.23,WNW,300,1.0,-999.0,63,-99.99,,,-99.99,,2018-04-20 07:07:00,
2018-04-20 03:36:00,40.0,28.0,30.23,NW,317,0.0,-999.0,63,-99.99,,,-99.99,,2018-04-20 07:36:00,
2018-04-20 04:07:00,41.0,29.0,30.23,SSE,163,0.0,-999.0,63,-99.99,,,-99.99,,2018-04-20 08:07:00,
2018-04-20 04:36:00,41.0,29.0,30.24,NW,311,1.0,-999.0,61,-99.99,,,-99.99,,2018-04-20 08:36:00,
2018-04-20 05:07:00,40.0,28.0,30.24,South,175,0.0,-999.0,63,-99.99,,,-99.99,,2018-04-20 09:07:00,
2018-04-20 05:36:00,40.0,29.0,30.25,NE,53,0.0,-999.0,64,-99.99,,,-99.99,,2018-04-20 09:36:00,
2018-04-20 06:07:00,41.0,29.0,30.26,ENE,61,0.0,-999.0,61,-99.99,,,-99.99,,2018-04-20 10:07:00,
2018-04-20 06:36:00,40.0,28.0,30.27,West,267,0.0,-999.0,61,-99.99,,,-99.99,,2018-04-20 10:36:00,
2018-04-20 07:07:00,40.0,28.0,30.29,WNW,302,0.0,-999.0,61,-99.99,,,-99.99,,2018-04-20 11:07:00,
2018-04-20 07:36:00,40.0,27.0,30.30,NW,305,0.0,-999.0,60,-99.99,,,-99.99,,2018-04-20 11:36:00,
2018-04-20 08:07:00,41.0,29.0,30.32,WNW,288,0.0,-999.0,63,-99.99,,,-99.99,,2018-04-20 12:07:00,
2018-04-20 08:36:00,40.0,28.0,30.34,SSW,194,0.0,-999.0,62,-99.99,,,-99.99,,2018-04-20 12:36:00,
2018-04-20 09:07:00,43.0,30.0,30.34,SSW,193,0.0,-999.0,59,-99.99,,,-99.99,,2018-04-20 13:07:00,
2018-04-20 10:07:00,48.0,29.0,30.36,SE,130,0.0,-999.0,48,-99.99,,,-99.99,,2018-04-20 14:07:00,
2018-04-20 10:37:00,51.0,29.0,30.37,South,184,0.0,-999.0,43,-99.99,,,-99.99,,2018-04-20 14:37:00,
2018-04-20 11:07:00,53.0,29.0,30.37,SSE,149,0.0,-999.0,40,-99.99,,,-99.99,,2018-04-20 15:07:00,
2018-04-20 11:37:00,54.0,28.0,30.37,SSE,159,0.0,-999.0,36,-99.99,,,-99.99,,2018-04-20 15:37:00,
2018-04-20 12:07:00,57.0,28.0,30.37,ENE,71,0.0,-999.0,33,-99.99,,,-99.99,,2018-04-20 16:07:00,
2018-04-20 12:36:00,58.0,28.0,30.36,SE,129,0.0,-999.0,31,-99.99,,,-99.99,,2018-04-20 16:36:00,
2018-04-20 13:36:00,61.0,25.0,30.34,SE,140,0.0,-999.0,25,-99.99,,,-99.99,,2018-04-20 17:36:00,
2018-04-20 14:07:00,62.0,26.0,30.33,East,96,0.0,-999.0,25,-99.99,,,-99.99,,2018-04-20 18:07:00,
2018-04-20 14:37:00,62.0,26.0,30.32,SSE,158,2.0,-999.0,25,-99.99,,,-99.99,,2018-04-20 18:37:00,
2018-04-20 15:07:00,65.0,26.0,30.31,ESE,112,0.0,-999.0,23,-99.99,,,-99.99,,2018-04-20 19:07:00,
2018-04-20 15:37:00,65.0,24.0,30.30,ENE,60,0.0,-999.0,21,-99.99,,,-99.99,,2018-04-20 19:37:00,
2018-04-20 16:36:00,66.0,26.0,30.28,SSE,159,1.0,-999.0,22,-99.99,,,-99.99,,2018-04-20 20:36:00,
2018-04-20 17:07:00,66.0,26.0,30.28,NNW,333,1.0,-999.0,22,-99.99,,,-99.99,,2018-04-20 21:07:00,
2018-04-20 17:36:00,66.0,26.0,30.27,NE,44,0.0,-999.0,22,-99.99,,,-99.99,,2018-04-20 21:36:00,
2018-04-20 18:06:00,66.0,26.0,30.27,WNW,284,1.0,-999.0,22,-99.99,,,-99.99,,2018-04-20 22:06:00,
2018-04-20 18:36:00,65.0,24.0,30.27,ENE,67,0.0,-999.0,21,-99.99,,,-99.99,,2018-04-20 22:36:00,